This is the latest recevied weather packets stored in our database for station/object SQ9MHX-13. If no packets are shown the sender has not sent any weather packets the latest 10 day(s).
| Time | Temp. | Humidity | Pressure | Rain* | Wind** | Luminosity | Snow |
|---|---|---|---|---|---|---|---|
| 1777958620 | 15° C | 53% | 961.9 hPa | - | 0 m/s | - | - |
| 1777958322 | 13.89° C | 53% | 962.4 hPa | - | 0 m/s | - | - |
| 1777958023 | 13.89° C | 56% | 962.7 hPa | - | 0 m/s | - | - |
| 1777957725 | 13.89° C | 53% | 962.8 hPa | - | 0 m/s | - | - |
| 1777957426 | 13.89° C | 54% | 962.9 hPa | - | 0 m/s | - | - |
| 1777957127 | 13.89° C | 53% | 963.7 hPa | - | 0 m/s | - | - |
| 1777956829 | 13.89° C | 56% | 964.4 hPa | - | 0 m/s | - | - |
| 1777956530 | 12.78° C | 58% | 964.9 hPa | - | 0 m/s | - | - |
| 1777956231 | 12.78° C | 56% | 965.3 hPa | - | 0 m/s | - | - |
| 1777955933 | 12.78° C | 58% | 966 hPa | - | 0 m/s | - | - |
| 1777955634 | 12.22° C | 60% | 966.8 hPa | - | 0 m/s | - | - |
| 1777955336 | 12.22° C | 61% | 967.8 hPa | - | 0 m/s | - | - |
| 1777955038 | 11.11° C | 64% | 968.6 hPa | - | 0 m/s | - | - |
| 1777954739 | 11.11° C | 67% | 969.3 hPa | - | 0 m/s | - | - |
| 1777954441 | 11.11° C | 63% | 969.2 hPa | - | 0 m/s | - | - |
| 1777954142 | 11.11° C | 63% | 969.7 hPa | - | 0 m/s | - | - |
| 1777953844 | 10° C | 65% | 970.1 hPa | - | 0 m/s | - | - |
| 1777953546 | 11.11° C | 64% | 970.6 hPa | - | 0 m/s | - | - |
| 1777953247 | 8.89° C | 67% | 971.5 hPa | - | 0 m/s | - | - |
| 1777952949 | 7.78° C | 71% | 972.8 hPa | - | 0 m/s | - | - |
| 1777952651 | 7.78° C | 71% | 972.8 hPa | - | 0 m/s | - | - |
| 1777952353 | 7.22° C | 75% | 973.9 hPa | - | 0 m/s | - | - |
| 1777951756 | 7.22° C | 75% | 973.5 hPa | - | 0 m/s | - | - |
| 1777951458 | 7.22° C | 76% | 973.9 hPa | - | 0 m/s | - | - |
| 1777951160 | 7.22° C | 76% | 973.6 hPa | - | 0 m/s | - | - |
* Rain since midnight (hover to see other rain measurements)
** Current wind speed in m/s (hover to see current wind gust speed)